createdAt,value
2023-04-18T00:02:17.324Z,10.41
2023-04-18T00:04:47.939Z,10.39
2023-04-18T00:07:19.495Z,10.40
2023-04-18T00:09:49.708Z,10.39
2023-04-18T00:12:20.657Z,10.37
2023-04-18T00:14:52.112Z,10.35
2023-04-18T00:17:22.759Z,10.35
2023-04-18T00:19:54.231Z,10.37
2023-04-18T00:22:24.505Z,10.39
2023-04-18T00:24:55.136Z,10.39
2023-04-18T00:27:25.772Z,10.43
2023-04-18T00:29:56.061Z,10.44
2023-04-18T00:32:26.302Z,10.46
2023-04-18T00:34:56.653Z,10.48
2023-04-18T00:37:27.220Z,10.47
2023-04-18T00:39:57.956Z,10.45
2023-04-18T00:42:29.157Z,10.42
2023-04-18T00:44:59.804Z,10.42
2023-04-18T00:47:30.536Z,10.40
2023-04-18T00:50:01.215Z,10.40
2023-04-18T00:52:33.633Z,10.40
2023-04-18T00:55:05.075Z,10.34
2023-04-18T00:57:35.872Z,10.27
2023-04-18T01:00:09.828Z,10.23
2023-04-18T01:02:41.144Z,10.21
2023-04-18T01:05:12.395Z,10.23
2023-04-18T01:07:42.756Z,10.27
2023-04-18T01:10:13.486Z,10.31
2023-04-18T01:12:44.304Z,10.34
2023-04-18T01:15:15.762Z,10.39
2023-04-18T01:17:48.691Z,10.44
2023-04-18T01:20:23.420Z,10.46
2023-04-18T01:22:54.547Z,10.49
2023-04-18T01:25:25.307Z,10.51
2023-04-18T01:27:55.763Z,10.48
2023-04-18T01:30:26.051Z,10.47
2023-04-18T01:32:56.306Z,10.47
2023-04-18T01:35:29.580Z,10.43
2023-04-18T01:38:00.144Z,10.36
2023-04-18T01:40:31.396Z,10.34
2023-04-18T01:43:01.649Z,10.33
2023-04-18T01:45:32.279Z,10.28
2023-04-18T01:48:02.657Z,10.23
2023-04-18T01:50:33.289Z,10.22
2023-04-18T01:53:03.446Z,10.22
2023-04-18T01:55:33.932Z,10.21
2023-04-18T01:58:04.176Z,10.20
2023-04-18T02:00:34.583Z,10.24
2023-04-18T02:03:05.368Z,10.31
2023-04-18T02:05:37.753Z,10.38
2023-04-18T02:08:08.183Z,10.41
2023-04-18T02:10:39.570Z,10.44
2023-04-18T02:13:10.102Z,10.44
2023-04-18T02:15:40.602Z,10.45
2023-04-18T02:18:11.927Z,10.46
2023-04-18T02:20:42.649Z,10.47
2023-04-18T02:23:13.131Z,10.46
2023-04-18T02:25:43.929Z,10.46
2023-04-18T02:28:14.705Z,10.45
2023-04-18T02:30:45.240Z,10.44
2023-04-18T02:33:15.666Z,10.43
2023-04-18T02:35:45.932Z,10.40
2023-04-18T02:38:16.959Z,10.39
2023-04-18T02:40:47.287Z,10.35
2023-04-18T02:43:17.483Z,10.36
2023-04-18T02:45:48.314Z,10.37
2023-04-18T02:48:18.726Z,10.37
2023-04-18T02:50:49.131Z,10.37
2023-04-18T02:53:19.675Z,10.37
2023-04-18T02:55:50.122Z,10.34
2023-04-18T02:58:25.170Z,10.35
2023-04-18T03:00:56.361Z,10.38
2023-04-18T03:03:26.770Z,10.43
2023-04-18T03:05:57.584Z,10.46
2023-04-18T03:08:28.356Z,10.47
2023-04-18T03:10:59.307Z,10.49
2023-04-18T03:13:29.563Z,10.52
2023-04-18T03:16:00.764Z,10.53
2023-04-18T03:18:31.214Z,10.53
2023-04-18T03:21:01.979Z,10.53
2023-04-18T03:23:32.280Z,10.50
2023-04-18T03:26:02.873Z,10.53
2023-04-18T03:28:33.580Z,10.60
2023-04-18T03:31:04.100Z,10.69
2023-04-18T03:33:35.089Z,10.77
2023-04-18T03:36:06.457Z,10.86
2023-04-18T03:38:40.496Z,10.94
2023-04-18T03:41:10.839Z,11.01
2023-04-18T03:43:41.536Z,11.08
2023-04-18T03:46:13.732Z,11.13
2023-04-18T03:48:44.332Z,11.13
2023-04-18T03:51:15.088Z,11.11
2023-04-18T03:53:45.839Z,11.10
2023-04-18T03:56:16.568Z,11.14
2023-04-18T03:58:46.814Z,11.18
2023-04-18T04:01:17.509Z,11.22
2023-04-18T04:03:48.313Z,11.29
2023-04-18T04:06:21.474Z,11.35
2023-04-18T04:08:51.801Z,11.35
2023-04-18T04:11:22.146Z,11.36
2023-04-18T04:13:52.863Z,11.39
2023-04-18T04:16:23.552Z,11.43
2023-04-18T04:18:54.088Z,11.43
2023-04-18T04:21:24.348Z,11.46
2023-04-18T04:23:55.508Z,11.46
2023-04-18T04:26:27.298Z,11.44
2023-04-18T04:28:58.906Z,11.47
2023-04-18T04:31:29.732Z,11.52
2023-04-18T04:34:00.279Z,11.53
2023-04-18T04:36:30.806Z,11.54
2023-04-18T04:39:03.892Z,11.59
2023-04-18T04:41:37.298Z,11.63
2023-04-18T04:44:07.856Z,11.64
2023-04-18T04:46:40.077Z,11.66
2023-04-18T04:49:10.271Z,11.67
2023-04-18T04:51:40.727Z,11.65
2023-04-18T04:54:11.431Z,11.63
2023-04-18T04:56:41.908Z,11.62
2023-04-18T04:59:20.098Z,11.63
2023-04-18T05:01:51.539Z,11.63
2023-04-18T05:04:22.800Z,11.61
2023-04-18T05:06:53.287Z,11.64
2023-04-18T05:09:23.446Z,11.68
2023-04-18T05:11:55.756Z,11.72
2023-04-18T05:14:29.825Z,11.74
2023-04-18T05:17:01.679Z,11.78
2023-04-18T05:19:34.088Z,11.83
2023-04-18T05:22:05.448Z,11.91
2023-04-18T05:24:36.432Z,11.97
2023-04-18T05:27:07.962Z,11.97
2023-04-18T05:29:40.014Z,11.96
2023-04-18T05:32:12.113Z,11.92
2023-04-18T05:34:46.849Z,11.95
2023-04-18T05:37:18.063Z,12.04
2023-04-18T05:39:51.146Z,12.16
2023-04-18T05:42:22.670Z,12.28
2023-04-18T05:44:59.298Z,12.33
2023-04-18T05:47:30.718Z,12.39
2023-04-18T05:50:03.316Z,12.48
2023-04-18T05:52:34.649Z,12.51
2023-04-18T05:55:08.081Z,12.55
2023-04-18T05:57:42.563Z,12.67
2023-04-18T06:00:17.045Z,12.79
2023-04-18T06:02:51.620Z,12.84
2023-04-18T06:05:22.902Z,12.88
2023-04-18T06:07:54.610Z,12.86
2023-04-18T06:10:26.634Z,12.87
2023-04-18T06:13:00.753Z,12.87
2023-04-18T06:15:32.028Z,12.83
2023-04-18T06:18:07.857Z,12.85
2023-04-18T06:20:40.062Z,12.98
2023-04-18T06:23:23.631Z,13.13
2023-04-18T06:25:55.962Z,13.28
2023-04-18T06:28:34.507Z,13.37
2023-04-18T06:31:08.692Z,13.52
2023-04-18T06:33:40.856Z,13.68
2023-04-18T06:36:12.406Z,13.80
2023-04-18T06:38:44.295Z,13.93
2023-04-18T06:41:17.081Z,14.10
2023-04-18T06:44:02.235Z,14.28
2023-04-18T06:46:36.176Z,14.49
2023-04-18T06:49:08.607Z,14.63
2023-04-18T06:51:40.152Z,14.67
2023-04-18T06:54:12.909Z,14.73
2023-04-18T06:56:45.517Z,14.83
2023-04-18T06:59:22.116Z,14.89
2023-04-18T07:01:56.981Z,14.88
2023-04-18T07:04:29.714Z,14.97
2023-04-18T07:07:01.951Z,15.04
2023-04-18T07:09:35.062Z,15.16
2023-04-18T07:12:14.682Z,15.27
2023-04-18T07:14:46.857Z,15.34
2023-04-18T07:17:17.888Z,15.33
2023-04-18T07:19:48.528Z,15.40
2023-04-18T07:22:18.993Z,15.52
2023-04-18T07:24:49.402Z,15.58
2023-04-18T07:27:20.925Z,15.60
2023-04-18T07:29:52.346Z,15.47
2023-04-18T07:32:23.004Z,15.41
2023-04-18T07:34:55.182Z,15.36
2023-04-18T07:37:25.949Z,15.42
2023-04-18T07:39:56.296Z,15.53
2023-04-18T07:42:27.387Z,15.65
2023-04-18T07:44:59.624Z,15.76
2023-04-18T07:47:31.566Z,15.85
2023-04-18T07:50:03.445Z,15.92
2023-04-18T07:52:33.820Z,15.93
2023-04-18T07:55:09.080Z,16.00
2023-04-18T07:57:39.581Z,15.99
2023-04-18T08:00:12.937Z,15.97
2023-04-18T08:02:46.372Z,16.01
2023-04-18T08:05:17.147Z,15.96
2023-04-18T08:07:52.458Z,15.94
2023-04-18T08:10:25.415Z,16.00
2023-04-18T08:12:58.426Z,16.06
2023-04-18T08:15:33.211Z,16.16
2023-04-18T08:18:03.602Z,16.21
2023-04-18T08:20:35.636Z,16.25
2023-04-18T08:23:10.233Z,16.32
2023-04-18T08:25:47.786Z,16.39
2023-04-18T08:28:19.143Z,16.40
2023-04-18T08:30:50.166Z,16.34
2023-04-18T08:33:23.473Z,16.27
2023-04-18T08:35:53.922Z,16.20
2023-04-18T08:38:42.245Z,16.15
2023-04-18T08:41:12.990Z,16.06
2023-04-18T08:43:44.176Z,16.08
2023-04-18T08:46:14.786Z,16.14
2023-04-18T08:48:47.606Z,16.14
2023-04-18T08:51:18.536Z,16.24
2023-04-18T08:53:52.047Z,16.38
2023-04-18T08:56:25.679Z,16.47
2023-04-18T08:59:02.331Z,16.61
2023-04-18T09:01:51.847Z,16.66
2023-04-18T09:04:36.182Z,16.56
2023-04-18T09:07:08.297Z,16.53
2023-04-18T09:09:49.799Z,16.61
2023-04-18T09:12:24.752Z,16.73
2023-04-18T09:14:59.412Z,16.92
2023-04-18T09:17:37.441Z,17.10
2023-04-18T09:20:10.642Z,17.24
2023-04-18T09:22:51.204Z,17.38
2023-04-18T09:25:35.516Z,17.50
2023-04-18T09:28:24.393Z,17.63
2023-04-18T09:30:55.919Z,17.68
2023-04-18T09:33:34.086Z,17.62
2023-04-18T09:36:20.480Z,17.68
2023-04-18T09:38:56.295Z,17.80
2023-04-18T09:41:27.763Z,17.92
2023-04-18T09:44:15.057Z,17.97
2023-04-18T09:46:47.400Z,17.88
2023-04-18T09:49:20.531Z,17.93
2023-04-18T09:51:52.550Z,18.05
2023-04-18T09:54:28.258Z,18.07
2023-04-18T09:57:03.010Z,18.12
2023-04-18T09:59:42.020Z,18.31
2023-04-18T10:02:18.896Z,18.49
2023-04-18T10:04:49.506Z,18.54
2023-04-18T10:07:20.732Z,18.56
2023-04-18T10:09:51.259Z,18.53
2023-04-18T10:12:25.257Z,18.40
2023-04-18T10:15:00.800Z,18.26
2023-04-18T10:17:56.016Z,18.13
2023-04-18T10:20:31.785Z,18.11
2023-04-18T10:23:23.180Z,18.09
2023-04-18T10:25:54.016Z,18.12
2023-04-18T10:28:26.228Z,18.20
2023-04-18T10:31:03.049Z,18.24
2023-04-18T10:33:35.156Z,18.21
2023-04-18T10:36:19.729Z,18.20
2023-04-18T10:38:51.608Z,18.16
2023-04-18T10:41:27.153Z,18.10
2023-04-18T10:44:22.277Z,18.06
2023-04-18T10:47:21.374Z,18.06
2023-04-18T10:49:58.563Z,18.07
2023-04-18T10:52:29.659Z,17.96
2023-04-18T10:55:13.958Z,18.00
2023-04-18T10:57:45.421Z,18.04
2023-04-18T11:00:18.252Z,18.10
2023-04-18T11:02:55.607Z,18.07
2023-04-18T11:05:28.035Z,18.06
2023-04-18T11:07:58.525Z,18.04
2023-04-18T11:10:29.682Z,18.12
2023-04-18T11:13:04.258Z,18.17
2023-04-18T11:15:39.769Z,18.20
2023-04-18T11:18:11.953Z,18.23
2023-04-18T11:20:49.978Z,18.24
2023-04-18T11:23:24.943Z,18.23
2023-04-18T11:26:03.419Z,18.22
2023-04-18T11:28:34.516Z,18.20
2023-04-18T11:31:09.205Z,18.19
2023-04-18T11:33:41.014Z,18.21
2023-04-18T11:36:12.073Z,18.22
2023-04-18T11:38:43.045Z,18.13
2023-04-18T11:41:17.087Z,18.05
2023-04-18T11:43:48.787Z,18.00
2023-04-18T11:46:19.401Z,17.97
2023-04-18T11:48:50.729Z,17.84
2023-04-18T11:51:36.744Z,17.67
2023-04-18T11:54:13.253Z,17.52
2023-04-18T11:56:50.402Z,17.47
2023-04-18T11:59:24.081Z,17.45
2023-04-18T12:02:16.221Z,17.45
2023-04-18T12:04:59.354Z,17.54
2023-04-18T12:07:36.938Z,17.58
2023-04-18T12:10:10.784Z,17.61
2023-04-18T12:12:49.743Z,17.61
2023-04-18T12:15:21.517Z,17.56
2023-04-18T12:17:52.477Z,17.49
2023-04-18T12:20:27.184Z,17.46
2023-04-18T12:22:57.736Z,17.49
2023-04-18T12:25:28.827Z,17.45
2023-04-18T12:28:01.348Z,17.44
2023-04-18T12:30:34.158Z,17.44
2023-04-18T12:33:08.911Z,17.42
2023-04-18T12:35:39.930Z,17.37
2023-04-18T12:38:10.811Z,17.29
2023-04-18T12:40:41.649Z,17.12
2023-04-18T12:43:12.272Z,16.94
2023-04-18T12:45:43.183Z,16.80
2023-04-18T12:48:15.212Z,16.74
2023-04-18T12:50:45.456Z,16.65
2023-04-18T12:53:24.697Z,16.58
2023-04-18T12:56:03.222Z,16.51
2023-04-18T12:58:34.973Z,16.39
2023-04-18T13:01:09.130Z,16.24
2023-04-18T13:03:40.381Z,16.13
2023-04-18T13:06:11.285Z,16.02
2023-04-18T13:08:49.789Z,15.95
2023-04-18T13:11:22.485Z,15.86
2023-04-18T13:13:53.094Z,15.72
2023-04-18T13:16:24.872Z,15.63
2023-04-18T13:18:55.024Z,15.56
2023-04-18T13:21:53.431Z,15.48
2023-04-18T13:24:24.342Z,15.37
2023-04-18T13:26:55.357Z,15.33
2023-04-18T13:29:28.112Z,15.29
2023-04-18T13:32:08.391Z,15.29
2023-04-18T13:34:49.338Z,15.26
2023-04-18T13:37:19.650Z,15.17
2023-04-18T13:39:50.127Z,15.10
2023-04-18T13:42:20.925Z,15.06
2023-04-18T13:44:51.720Z,15.03
2023-04-18T13:47:23.272Z,15.01
2023-04-18T13:49:54.665Z,14.95
2023-04-18T13:52:26.106Z,14.91
2023-04-18T13:54:56.646Z,14.81
2023-04-18T13:57:33.293Z,14.72
2023-04-18T14:00:08.840Z,14.67
2023-04-18T14:02:41.875Z,14.61
2023-04-18T14:05:15.728Z,14.57
2023-04-18T14:07:47.265Z,14.53
2023-04-18T14:10:21.615Z,14.49
2023-04-18T14:12:58.522Z,14.48
2023-04-18T14:15:31.767Z,14.46
2023-04-18T14:18:22.151Z,14.44
2023-04-18T14:21:02.999Z,14.43
2023-04-18T14:23:49.975Z,14.43
2023-04-18T14:26:23.576Z,14.43
2023-04-18T14:28:54.178Z,14.42
2023-04-18T14:31:26.667Z,14.41
2023-04-18T14:34:00.589Z,14.41
2023-04-18T14:36:33.301Z,14.39
2023-04-18T14:39:04.890Z,14.39
2023-04-18T14:41:35.285Z,14.39
2023-04-18T14:46:54.651Z,14.34
2023-04-18T14:49:30.148Z,14.31
2023-04-18T14:52:00.856Z,14.28
2023-04-18T14:54:34.654Z,14.25
2023-04-18T14:57:07.934Z,14.18
2023-04-18T14:59:40.823Z,14.13
2023-04-18T15:02:11.882Z,14.14
2023-04-18T15:04:42.393Z,14.12
2023-04-18T15:07:15.232Z,14.08
2023-04-18T15:09:48.515Z,14.06
2023-04-18T15:12:21.324Z,14.04
2023-04-18T15:14:56.385Z,14.00
2023-04-18T15:17:30.847Z,13.95
2023-04-18T15:20:05.433Z,13.90
2023-04-18T15:22:48.016Z,13.84
2023-04-18T15:25:22.986Z,13.78
2023-04-18T15:27:54.188Z,13.72
2023-04-18T15:30:27.808Z,13.65
2023-04-18T15:32:58.397Z,13.58
2023-04-18T15:35:32.352Z,13.53
2023-04-18T15:38:14.415Z,13.46
2023-04-18T15:41:02.773Z,13.40
2023-04-18T15:43:42.268Z,13.34
2023-04-18T15:46:12.697Z,13.30
2023-04-18T15:48:43.209Z,13.27
2023-04-18T15:51:16.649Z,13.22
2023-04-18T15:53:48.463Z,13.19
2023-04-18T15:56:19.311Z,13.14
2023-04-18T15:58:53.992Z,13.11
2023-04-18T16:01:30.563Z,13.07
2023-04-18T16:04:01.676Z,13.04
2023-04-18T16:06:35.034Z,13.02
2023-04-18T16:09:07.614Z,12.99
2023-04-18T16:11:40.176Z,12.97
2023-04-18T16:14:11.829Z,12.95
2023-04-18T16:16:42.403Z,12.92
2023-04-18T16:19:14.507Z,12.90
2023-04-18T16:21:46.793Z,12.87
2023-04-18T16:24:17.711Z,12.86
2023-04-18T16:26:51.803Z,12.83
2023-04-18T16:29:22.143Z,12.81
2023-04-18T16:31:53.704Z,12.82
2023-04-18T16:34:24.285Z,12.82
2023-04-18T16:36:57.722Z,12.83
2023-04-18T16:39:31.991Z,12.84
2023-04-18T16:42:05.858Z,12.86
2023-04-18T16:44:43.094Z,12.89
2023-04-18T16:47:14.827Z,12.91
2023-04-18T16:49:51.535Z,12.94
2023-04-18T16:52:23.818Z,12.96
2023-04-18T16:54:59.519Z,12.98
2023-04-18T16:57:31.578Z,13.00
2023-04-18T17:00:06.490Z,13.02
2023-04-18T17:02:46.939Z,13.01
2023-04-18T17:05:19.453Z,13.03
2023-04-18T17:07:51.300Z,13.04
2023-04-18T17:10:23.522Z,13.04
2023-04-18T17:12:54.563Z,13.05
2023-04-18T17:15:34.583Z,13.07
2023-04-18T17:18:05.118Z,13.09
2023-04-18T17:20:39.060Z,13.11
2023-04-18T17:23:09.469Z,13.13
2023-04-18T17:25:41.305Z,13.15
2023-04-18T17:28:20.890Z,13.16
2023-04-18T17:30:57.605Z,13.19
2023-04-18T17:33:55.957Z,13.19
2023-04-18T17:36:32.179Z,13.19
2023-04-18T17:39:06.166Z,13.19
2023-04-18T17:41:38.821Z,13.20
2023-04-18T17:44:11.099Z,13.20
2023-04-18T17:46:52.172Z,13.19
2023-04-18T17:49:24.391Z,13.17
2023-04-18T17:51:55.148Z,13.17
2023-04-18T17:54:27.052Z,13.19
2023-04-18T17:56:58.090Z,13.19
2023-04-18T17:59:29.637Z,13.17
2023-04-18T18:01:59.988Z,13.13
2023-04-18T18:04:30.656Z,13.12
2023-04-18T18:07:07.533Z,13.19
2023-04-18T18:09:42.857Z,13.25
2023-04-18T18:12:15.406Z,13.23
2023-04-18T18:14:47.404Z,13.19
2023-04-18T18:17:24.620Z,13.18
2023-04-18T18:20:01.332Z,13.16
2023-04-18T18:22:35.862Z,13.15
2023-04-18T18:25:09.180Z,13.14
2023-04-18T18:27:41.082Z,13.14
2023-04-18T18:30:26.324Z,13.12
2023-04-18T18:32:57.805Z,13.09
2023-04-18T18:35:32.120Z,13.09
2023-04-18T18:38:03.673Z,13.10
2023-04-18T18:40:42.688Z,13.12
2023-04-18T18:43:16.879Z,13.13
2023-04-18T18:45:47.587Z,13.14
2023-04-18T18:48:18.173Z,13.14
2023-04-18T18:50:53.966Z,13.15
2023-04-18T18:53:25.498Z,13.16
2023-04-18T18:55:57.774Z,13.15
2023-04-18T19:01:30.872Z,13.15
2023-04-18T19:04:03.750Z,13.13
2023-04-18T19:06:35.712Z,13.12
2023-04-18T19:09:19.877Z,13.10
2023-04-18T19:11:51.547Z,13.08
2023-04-18T19:14:21.666Z,13.04
2023-04-18T19:16:56.808Z,12.98
2023-04-18T19:19:32.484Z,12.93
2023-04-18T19:22:05.787Z,12.89
2023-04-18T19:24:41.022Z,12.82
2023-04-18T19:27:11.438Z,12.73
2023-04-18T19:29:48.250Z,12.64
2023-04-18T19:32:20.976Z,12.55
2023-04-18T19:34:52.296Z,12.49
2023-04-18T19:37:30.556Z,12.46
2023-04-18T19:40:02.753Z,12.44
2023-04-18T19:42:44.944Z,12.45
2023-04-18T19:45:20.532Z,12.48
2023-04-18T19:47:55.298Z,12.52
2023-04-18T19:50:28.064Z,12.56
2023-04-18T19:53:01.312Z,12.60
2023-04-18T19:55:38.415Z,12.63
2023-04-18T19:58:10.921Z,12.66
2023-04-18T20:00:42.946Z,12.66
2023-04-18T20:03:25.945Z,12.66
2023-04-18T20:05:59.745Z,12.67
2023-04-18T20:08:31.931Z,12.68
2023-04-18T20:11:03.440Z,12.70
2023-04-18T20:13:38.259Z,12.72
2023-04-18T20:16:15.366Z,12.72
2023-04-18T20:18:49.869Z,12.70
2023-04-18T20:21:21.645Z,12.70
2023-04-18T20:23:56.379Z,12.69
2023-04-18T20:26:31.363Z,12.69
2023-04-18T20:29:03.375Z,12.69
2023-04-18T20:31:35.079Z,12.67
2023-04-18T20:34:06.350Z,12.67
2023-04-18T20:36:41.140Z,12.66
2023-04-18T20:39:12.835Z,12.68
2023-04-18T20:41:46.177Z,12.70
2023-04-18T20:44:20.988Z,12.72
2023-04-18T20:46:59.541Z,12.77
2023-04-18T20:49:33.473Z,12.84
2023-04-18T20:52:08.083Z,12.91
2023-04-18T20:54:38.841Z,12.96
2023-04-18T20:57:10.157Z,12.99
2023-04-18T20:59:40.896Z,13.02
2023-04-18T21:02:11.824Z,13.02
2023-04-18T21:04:46.515Z,13.01
2023-04-18T21:07:21.509Z,13.00
2023-04-18T21:09:52.104Z,12.98
2023-04-18T21:12:22.479Z,12.95
2023-04-18T21:14:53.062Z,12.90
2023-04-18T21:17:25.393Z,12.84
2023-04-18T21:19:56.823Z,12.82
2023-04-18T21:22:27.214Z,12.82
2023-04-18T21:24:57.688Z,12.81
2023-04-18T21:27:28.148Z,12.81
2023-04-18T21:29:58.366Z,12.80
2023-04-18T21:32:28.921Z,12.79
2023-04-18T21:35:01.130Z,12.78
2023-04-18T21:37:31.974Z,12.79
2023-04-18T21:40:06.242Z,12.78
2023-04-18T21:42:36.771Z,12.78
2023-04-18T21:45:09.133Z,12.77
2023-04-18T21:47:40.348Z,12.76
2023-04-18T21:50:12.210Z,12.75
2023-04-18T21:52:42.383Z,12.74
2023-04-18T21:55:13.363Z,12.72
2023-04-18T21:57:43.779Z,12.69
2023-04-18T22:00:16.552Z,12.65
2023-04-18T22:02:46.864Z,12.61
2023-04-18T22:05:17.982Z,12.59
2023-04-18T22:07:57.402Z,12.57
2023-04-18T22:10:28.815Z,12.56
2023-04-18T22:12:59.888Z,12.55
2023-04-18T22:15:31.089Z,12.58
2023-04-18T22:18:01.825Z,12.61
2023-04-18T22:20:33.274Z,12.65
2023-04-18T22:23:04.197Z,12.68
2023-04-18T22:25:34.966Z,12.71
2023-04-18T22:28:05.624Z,12.73
2023-04-18T22:30:36.083Z,12.73
2023-04-18T22:33:06.409Z,12.73
2023-04-18T22:35:36.480Z,12.72
2023-04-18T22:38:06.864Z,12.70
2023-04-18T22:40:37.004Z,12.70
2023-04-18T22:43:07.592Z,12.68
2023-04-18T22:45:38.639Z,12.63
2023-04-18T22:48:11.208Z,12.56
2023-04-18T22:50:42.501Z,12.53
2023-04-18T22:53:14.054Z,12.49
2023-04-18T22:55:45.264Z,12.46
2023-04-18T22:58:15.454Z,12.42
2023-04-18T23:00:46.465Z,12.38
2023-04-18T23:03:17.375Z,12.36
2023-04-18T23:05:47.866Z,12.35
2023-04-18T23:08:20.467Z,12.34
2023-04-18T23:10:51.004Z,12.34
2023-04-18T23:13:21.235Z,12.33
2023-04-18T23:15:51.783Z,12.33
2023-04-18T23:18:22.245Z,12.32
2023-04-18T23:20:52.427Z,12.34
2023-04-18T23:23:22.562Z,12.37
2023-04-18T23:25:52.753Z,12.42
2023-04-18T23:28:23.312Z,12.49
2023-04-18T23:30:53.782Z,12.55
2023-04-18T23:33:24.008Z,12.59
2023-04-18T23:35:54.687Z,12.64
2023-04-18T23:38:24.721Z,12.68
2023-04-18T23:40:55.168Z,12.72
2023-04-18T23:43:25.281Z,12.75
2023-04-18T23:45:55.452Z,12.78
2023-04-18T23:48:25.721Z,12.74
2023-04-18T23:50:55.928Z,12.71
2023-04-18T23:53:26.076Z,12.67
2023-04-18T23:55:56.275Z,12.64
2023-04-18T23:58:26.665Z,12.57
